sensor_id;sensor_type;location;lat;lon;timestamp;temperature;humidity
4637;DHT22;2331;48.806;9.140;2023-04-01T00:01:01;11.00;1.00
4637;DHT22;2331;48.806;9.140;2023-04-01T00:03:28;11.00;1.00
4637;DHT22;2331;48.806;9.140;2023-04-01T00:05:55;10.90;1.00
4637;DHT22;2331;48.806;9.140;2023-04-01T00:08:23;11.00;1.00
4637;DHT22;2331;48.806;9.140;2023-04-01T00:10:50;11.00;1.00
4637;DHT22;2331;48.806;9.140;2023-04-01T00:13:17;11.00;1.00
4637;DHT22;2331;48.806;9.140;2023-04-01T00:15:44;11.00;1.00
4637;DHT22;2331;48.806;9.140;2023-04-01T00:18:11;11.10;1.00
4637;DHT22;2331;48.806;9.140;2023-04-01T00:20:39;11.00;1.00
4637;DHT22;2331;48.806;9.140;2023-04-01T00:23:09;11.10;1.00
4637;DHT22;2331;48.806;9.140;2023-04-01T00:25:37;11.10;1.00
4637;DHT22;2331;48.806;9.140;2023-04-01T00:28:04;11.10;1.00
4637;DHT22;2331;48.806;9.140;2023-04-01T00:30:31;11.10;1.00
4637;DHT22;2331;48.806;9.140;2023-04-01T00:32:57;11.00;1.00
4637;DHT22;2331;48.806;9.140;2023-04-01T00:35:24;11.10;1.00
4637;DHT22;2331;48.806;9.140;2023-04-01T00:37:51;11.10;1.00
4637;DHT22;2331;48.806;9.140;2023-04-01T00:40:25;11.10;1.00
4637;DHT22;2331;48.806;9.140;2023-04-01T00:42:53;11.10;1.00
4637;DHT22;2331;48.806;9.140;2023-04-01T00:45:30;11.20;1.00
4637;DHT22;2331;48.806;9.140;2023-04-01T00:47:58;11.20;1.00
4637;DHT22;2331;48.806;9.140;2023-04-01T00:50:26;11.20;1.00
4637;DHT22;2331;48.806;9.140;2023-04-01T00:52:55;11.20;1.00
4637;DHT22;2331;48.806;9.140;2023-04-01T00:55:22;11.10;1.00
4637;DHT22;2331;48.806;9.140;2023-04-01T00:57:50;11.10;1.00
4637;DHT22;2331;48.806;9.140;2023-04-01T01:00:21;11.10;1.00
4637;DHT22;2331;48.806;9.140;2023-04-01T01:02:49;11.00;1.00
4637;DHT22;2331;48.806;9.140;2023-04-01T01:05:17;11.00;1.00
4637;DHT22;2331;48.806;9.140;2023-04-01T01:07:48;11.10;1.00
4637;DHT22;2331;48.806;9.140;2023-04-01T01:10:24;11.00;1.00
4637;DHT22;2331;48.806;9.140;2023-04-01T01:12:58;11.00;1.00
4637;DHT22;2331;48.806;9.140;2023-04-01T01:15:30;11.00;1.00
4637;DHT22;2331;48.806;9.140;2023-04-01T01:18:02;11.00;1.00
4637;DHT22;2331;48.806;9.140;2023-04-01T01:21:02;11.00;1.00
4637;DHT22;2331;48.806;9.140;2023-04-01T01:24:12;11.00;1.00
4637;DHT22;2331;48.806;9.140;2023-04-01T01:26:53;11.00;1.00
4637;DHT22;2331;48.806;9.140;2023-04-01T01:29:57;11.20;1.00
4637;DHT22;2331;48.806;9.140;2023-04-01T01:35:26;11.20;1.00
4637;DHT22;2331;48.806;9.140;2023-04-01T01:37:56;11.10;1.00
4637;DHT22;2331;48.806;9.140;2023-04-01T01:40:26;11.10;1.00
4637;DHT22;2331;48.806;9.140;2023-04-01T01:42:56;11.10;1.00
4637;DHT22;2331;48.806;9.140;2023-04-01T01:45:25;11.10;1.00
4637;DHT22;2331;48.806;9.140;2023-04-01T01:47:52;11.20;1.00
4637;DHT22;2331;48.806;9.140;2023-04-01T01:50:21;11.10;1.00
4637;DHT22;2331;48.806;9.140;2023-04-01T01:52:50;11.00;1.00
4637;DHT22;2331;48.806;9.140;2023-04-01T01:55:29;11.00;1.00
4637;DHT22;2331;48.806;9.140;2023-04-01T01:57:59;11.00;1.00
4637;DHT22;2331;48.806;9.140;2023-04-01T02:00:27;11.00;1.00
4637;DHT22;2331;48.806;9.140;2023-04-01T02:02:55;11.00;1.00
4637;DHT22;2331;48.806;9.140;2023-04-01T02:05:26;10.90;1.00
4637;DHT22;2331;48.806;9.140;2023-04-01T02:08:00;11.00;1.00
4637;DHT22;2331;48.806;9.140;2023-04-01T02:10:29;11.00;1.00
4637;DHT22;2331;48.806;9.140;2023-04-01T02:13:00;10.90;1.00
4637;DHT22;2331;48.806;9.140;2023-04-01T02:15:30;10.90;1.00
4637;DHT22;2331;48.806;9.140;2023-04-01T02:17:59;10.90;1.00
4637;DHT22;2331;48.806;9.140;2023-04-01T02:20:28;10.90;1.00
4637;DHT22;2331;48.806;9.140;2023-04-01T02:22:57;10.80;1.00
4637;DHT22;2331;48.806;9.140;2023-04-01T02:25:27;10.80;1.00
4637;DHT22;2331;48.806;9.140;2023-04-01T02:27:56;10.90;1.00
4637;DHT22;2331;48.806;9.140;2023-04-01T02:30:27;10.90;1.00
4637;DHT22;2331;48.806;9.140;2023-04-01T02:32:55;10.90;1.00
4637;DHT22;2331;48.806;9.140;2023-04-01T02:35:23;10.90;1.00
4637;DHT22;2331;48.806;9.140;2023-04-01T02:37:50;10.90;1.00
4637;DHT22;2331;48.806;9.140;2023-04-01T02:40:19;10.80;1.00
4637;DHT22;2331;48.806;9.140;2023-04-01T02:42:46;10.80;1.00
4637;DHT22;2331;48.806;9.140;2023-04-01T02:45:14;10.90;1.00
4637;DHT22;2331;48.806;9.140;2023-04-01T02:47:41;10.80;1.00
4637;DHT22;2331;48.806;9.140;2023-04-01T02:50:08;10.80;1.00
4637;DHT22;2331;48.806;9.140;2023-04-01T02:52:35;10.70;1.00
4637;DHT22;2331;48.806;9.140;2023-04-01T02:55:02;10.70;1.00
4637;DHT22;2331;48.806;9.140;2023-04-01T02:57:31;10.80;1.00
4637;DHT22;2331;48.806;9.140;2023-04-01T02:59:57;10.80;1.00
4637;DHT22;2331;48.806;9.140;2023-04-01T03:02:24;10.80;1.00
4637;DHT22;2331;48.806;9.140;2023-04-01T03:04:51;10.80;1.00
4637;DHT22;2331;48.806;9.140;2023-04-01T03:07:19;10.90;1.00
4637;DHT22;2331;48.806;9.140;2023-04-01T03:09:45;10.80;1.00
4637;DHT22;2331;48.806;9.140;2023-04-01T03:12:12;10.90;1.00
4637;DHT22;2331;48.806;9.140;2023-04-01T03:14:40;10.70;1.00
4637;DHT22;2331;48.806;9.140;2023-04-01T03:17:07;10.80;1.00
4637;DHT22;2331;48.806;9.140;2023-04-01T03:19:33;10.70;1.00
4637;DHT22;2331;48.806;9.140;2023-04-01T03:22:00;10.70;1.00
4637;DHT22;2331;48.806;9.140;2023-04-01T03:24:27;10.70;1.00
4637;DHT22;2331;48.806;9.140;2023-04-01T03:26:53;10.80;1.00
4637;DHT22;2331;48.806;9.140;2023-04-01T03:29:20;10.80;1.00
4637;DHT22;2331;48.806;9.140;2023-04-01T03:31:48;10.80;1.00
4637;DHT22;2331;48.806;9.140;2023-04-01T03:34:15;10.70;1.00
4637;DHT22;2331;48.806;9.140;2023-04-01T03:36:41;10.60;1.00
4637;DHT22;2331;48.806;9.140;2023-04-01T03:39:08;10.70;1.00
4637;DHT22;2331;48.806;9.140;2023-04-01T03:41:36;10.80;1.00
4637;DHT22;2331;48.806;9.140;2023-04-01T03:44:03;10.80;1.00
4637;DHT22;2331;48.806;9.140;2023-04-01T03:46:30;10.70;1.00
4637;DHT22;2331;48.806;9.140;2023-04-01T03:48:58;10.70;1.00
4637;DHT22;2331;48.806;9.140;2023-04-01T03:51:25;10.70;1.00
4637;DHT22;2331;48.806;9.140;2023-04-01T03:53:51;10.80;1.00
4637;DHT22;2331;48.806;9.140;2023-04-01T03:56:18;10.80;1.00
4637;DHT22;2331;48.806;9.140;2023-04-01T03:58:44;10.70;1.00
4637;DHT22;2331;48.806;9.140;2023-04-01T04:01:16;10.70;1.00
4637;DHT22;2331;48.806;9.140;2023-04-01T04:03:43;10.70;1.00
4637;DHT22;2331;48.806;9.140;2023-04-01T04:06:13;10.70;1.00
4637;DHT22;2331;48.806;9.140;2023-04-01T04:08:40;10.60;1.00
4637;DHT22;2331;48.806;9.140;2023-04-01T04:11:07;10.60;1.00
4637;DHT22;2331;48.806;9.140;2023-04-01T04:13:34;10.50;1.00
4637;DHT22;2331;48.806;9.140;2023-04-01T04:16:01;10.50;1.00
4637;DHT22;2331;48.806;9.140;2023-04-01T04:18:27;10.40;1.00
4637;DHT22;2331;48.806;9.140;2023-04-01T04:20:54;10.40;1.00
4637;DHT22;2331;48.806;9.140;2023-04-01T04:23:22;10.40;1.00
4637;DHT22;2331;48.806;9.140;2023-04-01T04:25:54;10.50;1.00
4637;DHT22;2331;48.806;9.140;2023-04-01T04:28:21;10.50;1.00
4637;DHT22;2331;48.806;9.140;2023-04-01T04:30:48;10.50;1.00
4637;DHT22;2331;48.806;9.140;2023-04-01T04:33:15;10.50;1.00
4637;DHT22;2331;48.806;9.140;2023-04-01T04:35:42;10.50;1.00
4637;DHT22;2331;48.806;9.140;2023-04-01T04:38:09;10.40;1.00
4637;DHT22;2331;48.806;9.140;2023-04-01T04:40:37;10.40;1.00
4637;DHT22;2331;48.806;9.140;2023-04-01T04:43:04;10.40;1.00
4637;DHT22;2331;48.806;9.140;2023-04-01T04:45:31;10.40;1.00
4637;DHT22;2331;48.806;9.140;2023-04-01T04:47:57;10.50;1.00
4637;DHT22;2331;48.806;9.140;2023-04-01T04:50:25;10.40;1.00
4637;DHT22;2331;48.806;9.140;2023-04-01T04:52:51;10.40;1.00
4637;DHT22;2331;48.806;9.140;2023-04-01T04:55:18;10.20;1.00
4637;DHT22;2331;48.806;9.140;2023-04-01T04:57:46;10.30;1.00
4637;DHT22;2331;48.806;9.140;2023-04-01T05:00:13;10.30;1.00
4637;DHT22;2331;48.806;9.140;2023-04-01T05:02:40;10.20;1.00
4637;DHT22;2331;48.806;9.140;2023-04-01T05:05:07;10.20;1.00
4637;DHT22;2331;48.806;9.140;2023-04-01T05:07:34;10.20;1.00
4637;DHT22;2331;48.806;9.140;2023-04-01T05:10:01;10.20;1.00
4637;DHT22;2331;48.806;9.140;2023-04-01T05:12:27;10.20;1.00
4637;DHT22;2331;48.806;9.140;2023-04-01T05:14:55;10.20;1.00
4637;DHT22;2331;48.806;9.140;2023-04-01T05:17:22;10.30;1.00
4637;DHT22;2331;48.806;9.140;2023-04-01T05:19:49;10.30;1.00
4637;DHT22;2331;48.806;9.140;2023-04-01T05:22:15;10.30;1.00
4637;DHT22;2331;48.806;9.140;2023-04-01T05:24:42;10.40;1.00
4637;DHT22;2331;48.806;9.140;2023-04-01T05:27:09;10.40;1.00
4637;DHT22;2331;48.806;9.140;2023-04-01T05:29:35;10.40;1.00
4637;DHT22;2331;48.806;9.140;2023-04-01T05:32:03;10.40;1.00
4637;DHT22;2331;48.806;9.140;2023-04-01T05:34:30;10.40;1.00
4637;DHT22;2331;48.806;9.140;2023-04-01T05:36:57;10.40;1.00
4637;DHT22;2331;48.806;9.140;2023-04-01T05:39:23;10.30;1.00
4637;DHT22;2331;48.806;9.140;2023-04-01T05:41:50;10.30;1.00
4637;DHT22;2331;48.806;9.140;2023-04-01T05:44:17;10.30;1.00
4637;DHT22;2331;48.806;9.140;2023-04-01T05:46:43;10.50;1.00
4637;DHT22;2331;48.806;9.140;2023-04-01T05:49:11;10.50;1.00
4637;DHT22;2331;48.806;9.140;2023-04-01T05:51:38;10.40;1.00
4637;DHT22;2331;48.806;9.140;2023-04-01T05:54:05;10.50;1.00
4637;DHT22;2331;48.806;9.140;2023-04-01T05:56:32;10.50;1.00
4637;DHT22;2331;48.806;9.140;2023-04-01T05:58:59;10.40;1.00
4637;DHT22;2331;48.806;9.140;2023-04-01T06:01:25;10.50;1.00
4637;DHT22;2331;48.806;9.140;2023-04-01T06:03:52;10.50;1.00
4637;DHT22;2331;48.806;9.140;2023-04-01T06:06:23;10.50;1.00
4637;DHT22;2331;48.806;9.140;2023-04-01T06:08:51;10.60;1.00
4637;DHT22;2331;48.806;9.140;2023-04-01T06:11:24;10.60;1.00
4637;DHT22;2331;48.806;9.140;2023-04-01T06:14:09;10.60;1.00
4637;DHT22;2331;48.806;9.140;2023-04-01T06:16:45;10.60;1.00
4637;DHT22;2331;48.806;9.140;2023-04-01T06:19:22;10.70;1.00
4637;DHT22;2331;48.806;9.140;2023-04-01T06:22:22;10.60;1.00
4637;DHT22;2331;48.806;9.140;2023-04-01T06:25:06;10.70;1.00
4637;DHT22;2331;48.806;9.140;2023-04-01T06:27:45;10.70;1.00
4637;DHT22;2331;48.806;9.140;2023-04-01T06:30:29;10.80;1.00
4637;DHT22;2331;48.806;9.140;2023-04-01T06:33:19;10.80;1.00
4637;DHT22;2331;48.806;9.140;2023-04-01T06:39:07;11.00;1.00
4637;DHT22;2331;48.806;9.140;2023-04-01T06:42:01;10.90;1.00
4637;DHT22;2331;48.806;9.140;2023-04-01T06:44:38;11.00;1.00
4637;DHT22;2331;48.806;9.140;2023-04-01T06:47:19;11.00;1.00
4637;DHT22;2331;48.806;9.140;2023-04-01T06:49:53;10.90;1.00
4637;DHT22;2331;48.806;9.140;2023-04-01T06:52:26;11.00;1.00
4637;DHT22;2331;48.806;9.140;2023-04-01T06:55:01;11.10;1.00
4637;DHT22;2331;48.806;9.140;2023-04-01T06:57:32;11.10;1.00
4637;DHT22;2331;48.806;9.140;2023-04-01T07:00:04;11.10;1.00
4637;DHT22;2331;48.806;9.140;2023-04-01T07:02:41;11.00;1.00
4637;DHT22;2331;48.806;9.140;2023-04-01T07:05:11;11.00;1.00
4637;DHT22;2331;48.806;9.140;2023-04-01T07:07:41;11.00;1.00
4637;DHT22;2331;48.806;9.140;2023-04-01T07:10:14;11.10;1.00
4637;DHT22;2331;48.806;9.140;2023-04-01T07:12:45;11.10;1.00
4637;DHT22;2331;48.806;9.140;2023-04-01T07:15:18;11.10;1.00
4637;DHT22;2331;48.806;9.140;2023-04-01T07:17:48;11.10;1.00
4637;DHT22;2331;48.806;9.140;2023-04-01T07:20:22;11.10;1.00
4637;DHT22;2331;48.806;9.140;2023-04-01T07:22:53;11.20;1.00
4637;DHT22;2331;48.806;9.140;2023-04-01T07:25:25;11.20;1.00
4637;DHT22;2331;48.806;9.140;2023-04-01T07:27:53;11.20;1.00
4637;DHT22;2331;48.806;9.140;2023-04-01T07:30:23;11.20;1.00
4637;DHT22;2331;48.806;9.140;2023-04-01T07:32:54;11.20;1.00
4637;DHT22;2331;48.806;9.140;2023-04-01T07:35:30;11.20;1.00
4637;DHT22;2331;48.806;9.140;2023-04-01T07:38:11;11.20;1.00
4637;DHT22;2331;48.806;9.140;2023-04-01T07:40:47;11.20;1.00
4637;DHT22;2331;48.806;9.140;2023-04-01T07:43:26;11.20;1.00
4637;DHT22;2331;48.806;9.140;2023-04-01T07:46:02;11.30;1.00
4637;DHT22;2331;48.806;9.140;2023-04-01T07:48:33;11.30;1.00
4637;DHT22;2331;48.806;9.140;2023-04-01T07:51:11;11.30;1.00
4637;DHT22;2331;48.806;9.140;2023-04-01T07:53:44;11.30;1.00
4637;DHT22;2331;48.806;9.140;2023-04-01T07:56:16;11.30;1.00
4637;DHT22;2331;48.806;9.140;2023-04-01T07:58:53;11.40;1.00
4637;DHT22;2331;48.806;9.140;2023-04-01T08:01:30;11.50;1.00
4637;DHT22;2331;48.806;9.140;2023-04-01T08:04:15;11.50;1.00
4637;DHT22;2331;48.806;9.140;2023-04-01T08:06:47;11.40;1.00
4637;DHT22;2331;48.806;9.140;2023-04-01T08:09:23;11.50;1.00
4637;DHT22;2331;48.806;9.140;2023-04-01T08:12:02;11.50;1.00
4637;DHT22;2331;48.806;9.140;2023-04-01T08:14:35;11.50;1.00
4637;DHT22;2331;48.806;9.140;2023-04-01T08:17:07;11.60;1.00
4637;DHT22;2331;48.806;9.140;2023-04-01T08:19:48;11.60;1.00
4637;DHT22;2331;48.806;9.140;2023-04-01T08:22:23;11.50;1.00
4637;DHT22;2331;48.806;9.140;2023-04-01T08:24:55;11.60;1.00
4637;DHT22;2331;48.806;9.140;2023-04-01T08:27:31;11.60;1.00
4637;DHT22;2331;48.806;9.140;2023-04-01T08:30:03;11.60;1.00
4637;DHT22;2331;48.806;9.140;2023-04-01T08:32:34;11.70;1.00
4637;DHT22;2331;48.806;9.140;2023-04-01T08:35:08;11.60;1.00
4637;DHT22;2331;48.806;9.140;2023-04-01T08:37:38;11.60;1.00
4637;DHT22;2331;48.806;9.140;2023-04-01T08:40:33;11.50;1.00
4637;DHT22;2331;48.806;9.140;2023-04-01T08:43:10;11.50;1.00
4637;DHT22;2331;48.806;9.140;2023-04-01T08:45:47;11.50;1.00
4637;DHT22;2331;48.806;9.140;2023-04-01T08:48:31;11.40;1.00
4637;DHT22;2331;48.806;9.140;2023-04-01T08:51:30;11.50;1.00
4637;DHT22;2331;48.806;9.140;2023-04-01T08:54:21;11.50;1.00
4637;DHT22;2331;48.806;9.140;2023-04-01T08:56:59;11.50;1.00
4637;DHT22;2331;48.806;9.140;2023-04-01T08:59:43;11.40;1.00
4637;DHT22;2331;48.806;9.140;2023-04-01T09:05:36;11.40;1.00
4637;DHT22;2331;48.806;9.140;2023-04-01T09:08:17;11.40;1.00
4637;DHT22;2331;48.806;9.140;2023-04-01T09:10:59;11.40;1.00
4637;DHT22;2331;48.806;9.140;2023-04-01T09:16:53;11.30;1.00
4637;DHT22;2331;48.806;9.140;2023-04-01T09:19:32;11.20;1.00
4637;DHT22;2331;48.806;9.140;2023-04-01T09:25:06;11.30;1.00
4637;DHT22;2331;48.806;9.140;2023-04-01T09:27:44;11.30;1.00
4637;DHT22;2331;48.806;9.140;2023-04-01T09:30:38;11.50;1.00
4637;DHT22;2331;48.806;9.140;2023-04-01T09:33:41;11.40;1.00
4637;DHT22;2331;48.806;9.140;2023-04-01T09:36:18;11.50;1.00
4637;DHT22;2331;48.806;9.140;2023-04-01T09:38:56;11.40;1.00
4637;DHT22;2331;48.806;9.140;2023-04-01T09:41:29;11.50;1.00
4637;DHT22;2331;48.806;9.140;2023-04-01T09:44:03;11.50;1.00
4637;DHT22;2331;48.806;9.140;2023-04-01T09:46:42;11.50;1.00
4637;DHT22;2331;48.806;9.140;2023-04-01T09:49:24;11.50;1.00
4637;DHT22;2331;48.806;9.140;2023-04-01T09:52:07;11.50;1.00
4637;DHT22;2331;48.806;9.140;2023-04-01T09:54:50;11.70;1.00
4637;DHT22;2331;48.806;9.140;2023-04-01T09:57:47;11.70;1.00
4637;DHT22;2331;48.806;9.140;2023-04-01T10:03:34;11.50;1.00
4637;DHT22;2331;48.806;9.140;2023-04-01T10:09:47;11.50;1.00
4637;DHT22;2331;48.806;9.140;2023-04-01T10:16:08;11.50;1.00
4637;DHT22;2331;48.806;9.140;2023-04-01T10:19:10;11.70;1.00
4637;DHT22;2331;48.806;9.140;2023-04-01T10:22:00;11.80;1.00
4637;DHT22;2331;48.806;9.140;2023-04-01T10:24:53;12.00;1.00
4637;DHT22;2331;48.806;9.140;2023-04-01T10:34:23;12.10;1.00
4637;DHT22;2331;48.806;9.140;2023-04-01T10:36:55;12.00;1.00
4637;DHT22;2331;48.806;9.140;2023-04-01T10:40:06;12.00;1.00
4637;DHT22;2331;48.806;9.140;2023-04-01T10:43:06;11.80;1.00
4637;DHT22;2331;48.806;9.140;2023-04-01T10:52:23;12.00;1.00
4637;DHT22;2331;48.806;9.140;2023-04-01T10:55:10;12.00;1.00
4637;DHT22;2331;48.806;9.140;2023-04-01T10:58:12;12.20;1.00
4637;DHT22;2331;48.806;9.140;2023-04-01T11:01:14;12.20;1.00
4637;DHT22;2331;48.806;9.140;2023-04-01T11:07:47;12.10;1.00
4637;DHT22;2331;48.806;9.140;2023-04-01T11:10:57;12.10;1.00
4637;DHT22;2331;48.806;9.140;2023-04-01T11:13:49;12.10;1.00
4637;DHT22;2331;48.806;9.140;2023-04-01T11:16:47;12.30;1.00
4637;DHT22;2331;48.806;9.140;2023-04-01T11:19:52;12.40;1.00
4637;DHT22;2331;48.806;9.140;2023-04-01T11:22:44;12.30;1.00
4637;DHT22;2331;48.806;9.140;2023-04-01T11:25:29;12.40;1.00
4637;DHT22;2331;48.806;9.140;2023-04-01T11:28:27;12.50;1.00
4637;DHT22;2331;48.806;9.140;2023-04-01T11:31:21;12.60;1.00
4637;DHT22;2331;48.806;9.140;2023-04-01T11:33:53;12.70;1.00
4637;DHT22;2331;48.806;9.140;2023-04-01T11:36:32;12.70;1.00
4637;DHT22;2331;48.806;9.140;2023-04-01T11:39:11;12.70;1.00
4637;DHT22;2331;48.806;9.140;2023-04-01T11:41:51;12.80;1.00
4637;DHT22;2331;48.806;9.140;2023-04-01T11:44:24;12.90;1.00
4637;DHT22;2331;48.806;9.140;2023-04-01T11:47:19;12.70;1.00
4637;DHT22;2331;48.806;9.140;2023-04-01T11:50:12;12.70;1.00
4637;DHT22;2331;48.806;9.140;2023-04-01T11:52:56;12.80;1.00
4637;DHT22;2331;48.806;9.140;2023-04-01T11:55:35;12.90;1.00
4637;DHT22;2331;48.806;9.140;2023-04-01T11:58:14;13.00;1.00
4637;DHT22;2331;48.806;9.140;2023-04-01T12:01:07;13.00;1.00
4637;DHT22;2331;48.806;9.140;2023-04-01T12:06:33;13.00;1.00
4637;DHT22;2331;48.806;9.140;2023-04-01T12:09:10;12.90;1.00
4637;DHT22;2331;48.806;9.140;2023-04-01T12:11:45;12.90;1.00
4637;DHT22;2331;48.806;9.140;2023-04-01T12:14:19;12.90;1.00
4637;DHT22;2331;48.806;9.140;2023-04-01T12:16:55;12.80;1.00
4637;DHT22;2331;48.806;9.140;2023-04-01T12:19:31;12.70;1.00
4637;DHT22;2331;48.806;9.140;2023-04-01T12:22:12;12.80;1.00
4637;DHT22;2331;48.806;9.140;2023-04-01T12:24:47;12.70;1.00
4637;DHT22;2331;48.806;9.140;2023-04-01T12:27:31;12.70;1.00
4637;DHT22;2331;48.806;9.140;2023-04-01T12:30:34;12.60;1.00
4637;DHT22;2331;48.806;9.140;2023-04-01T12:33:31;12.70;1.00
4637;DHT22;2331;48.806;9.140;2023-04-01T12:36:11;12.70;1.00
4637;DHT22;2331;48.806;9.140;2023-04-01T12:38:51;12.80;1.00
4637;DHT22;2331;48.806;9.140;2023-04-01T12:41:26;12.80;1.00
4637;DHT22;2331;48.806;9.140;2023-04-01T12:44:16;12.90;1.00
4637;DHT22;2331;48.806;9.140;2023-04-01T12:47:18;12.80;1.00
4637;DHT22;2331;48.806;9.140;2023-04-01T12:49:56;12.90;1.00
4637;DHT22;2331;48.806;9.140;2023-04-01T12:52:43;13.00;1.00
4637;DHT22;2331;48.806;9.140;2023-04-01T12:55:28;13.00;1.00
4637;DHT22;2331;48.806;9.140;2023-04-01T12:58:42;13.00;1.00
4637;DHT22;2331;48.806;9.140;2023-04-01T13:01:30;13.00;1.00
4637;DHT22;2331;48.806;9.140;2023-04-01T13:07:25;13.10;1.00
4637;DHT22;2331;48.806;9.140;2023-04-01T13:10:02;13.10;1.00
4637;DHT22;2331;48.806;9.140;2023-04-01T13:12:55;13.10;1.00
4637;DHT22;2331;48.806;9.140;2023-04-01T13:15:28;13.00;1.00
4637;DHT22;2331;48.806;9.140;2023-04-01T13:18:06;13.10;1.00
4637;DHT22;2331;48.806;9.140;2023-04-01T13:20:44;13.10;1.00
4637;DHT22;2331;48.806;9.140;2023-04-01T13:23:27;13.20;1.00
4637;DHT22;2331;48.806;9.140;2023-04-01T13:26:04;13.30;1.00
4637;DHT22;2331;48.806;9.140;2023-04-01T13:28:38;13.30;1.00
4637;DHT22;2331;48.806;9.140;2023-04-01T13:31:09;13.30;1.00
4637;DHT22;2331;48.806;9.140;2023-04-01T13:33:47;13.40;1.00
4637;DHT22;2331;48.806;9.140;2023-04-01T13:36:20;13.10;1.00
4637;DHT22;2331;48.806;9.140;2023-04-01T13:39:15;13.20;1.00
4637;DHT22;2331;48.806;9.140;2023-04-01T13:42:11;13.20;1.00
4637;DHT22;2331;48.806;9.140;2023-04-01T13:44:42;13.20;1.00
4637;DHT22;2331;48.806;9.140;2023-04-01T13:47:51;13.30;1.00
4637;DHT22;2331;48.806;9.140;2023-04-01T13:50:46;13.20;1.00
4637;DHT22;2331;48.806;9.140;2023-04-01T13:56:23;13.30;1.00
4637;DHT22;2331;48.806;9.140;2023-04-01T13:59:02;13.10;1.00
4637;DHT22;2331;48.806;9.140;2023-04-01T14:01:37;13.20;1.00
4637;DHT22;2331;48.806;9.140;2023-04-01T14:04:25;13.10;1.00
4637;DHT22;2331;48.806;9.140;2023-04-01T14:07:00;13.20;1.00
4637;DHT22;2331;48.806;9.140;2023-04-01T14:09:41;13.30;1.00
4637;DHT22;2331;48.806;9.140;2023-04-01T14:12:23;13.30;1.00
4637;DHT22;2331;48.806;9.140;2023-04-01T14:15:03;13.20;1.00
4637;DHT22;2331;48.806;9.140;2023-04-01T14:17:50;13.00;1.00
4637;DHT22;2331;48.806;9.140;2023-04-01T14:20:41;13.00;1.00
4637;DHT22;2331;48.806;9.140;2023-04-01T14:23:22;13.00;1.00
4637;DHT22;2331;48.806;9.140;2023-04-01T14:26:10;12.90;1.00
4637;DHT22;2331;48.806;9.140;2023-04-01T14:28:46;12.80;1.00
4637;DHT22;2331;48.806;9.140;2023-04-01T14:31:33;12.80;1.00
4637;DHT22;2331;48.806;9.140;2023-04-01T14:34:09;12.80;1.00
4637;DHT22;2331;48.806;9.140;2023-04-01T14:36:51;12.70;1.00
4637;DHT22;2331;48.806;9.140;2023-04-01T14:39:34;12.80;1.00
4637;DHT22;2331;48.806;9.140;2023-04-01T14:42:17;12.80;1.00
4637;DHT22;2331;48.806;9.140;2023-04-01T14:45:02;12.80;1.00
4637;DHT22;2331;48.806;9.140;2023-04-01T14:47:44;12.90;1.00
4637;DHT22;2331;48.806;9.140;2023-04-01T14:50:14;12.80;1.00
4637;DHT22;2331;48.806;9.140;2023-04-01T14:52:46;12.90;1.00
4637;DHT22;2331;48.806;9.140;2023-04-01T14:55:23;12.70;1.00
4637;DHT22;2331;48.806;9.140;2023-04-01T14:58:04;12.80;1.00
4637;DHT22;2331;48.806;9.140;2023-04-01T15:00:46;12.90;1.00
4637;DHT22;2331;48.806;9.140;2023-04-01T15:03:18;12.80;1.00
4637;DHT22;2331;48.806;9.140;2023-04-01T15:05:49;12.80;1.00
4637;DHT22;2331;48.806;9.140;2023-04-01T15:08:19;12.70;1.00
4637;DHT22;2331;48.806;9.140;2023-04-01T15:16:58;12.80;1.00
4637;DHT22;2331;48.806;9.140;2023-04-01T15:19:39;13.00;1.00
4637;DHT22;2331;48.806;9.140;2023-04-01T15:22:27;13.10;1.00
4637;DHT22;2331;48.806;9.140;2023-04-01T15:25:05;13.10;1.00
4637;DHT22;2331;48.806;9.140;2023-04-01T15:27:43;12.90;1.00
4637;DHT22;2331;48.806;9.140;2023-04-01T15:30:30;12.90;1.00
4637;DHT22;2331;48.806;9.140;2023-04-01T15:33:25;12.90;1.00
4637;DHT22;2331;48.806;9.140;2023-04-01T15:36:04;13.00;1.00
4637;DHT22;2331;48.806;9.140;2023-04-01T15:38:38;12.90;1.00
4637;DHT22;2331;48.806;9.140;2023-04-01T15:41:14;13.00;1.00
4637;DHT22;2331;48.806;9.140;2023-04-01T15:43:43;12.90;1.00
4637;DHT22;2331;48.806;9.140;2023-04-01T15:46:28;13.00;1.00
4637;DHT22;2331;48.806;9.140;2023-04-01T15:49:18;13.00;1.00
4637;DHT22;2331;48.806;9.140;2023-04-01T15:51:56;13.00;1.00
4637;DHT22;2331;48.806;9.140;2023-04-01T15:54:39;12.90;1.00
4637;DHT22;2331;48.806;9.140;2023-04-01T15:57:23;12.90;1.00
4637;DHT22;2331;48.806;9.140;2023-04-01T16:00:06;12.90;1.00
4637;DHT22;2331;48.806;9.140;2023-04-01T16:02:41;12.90;1.00
4637;DHT22;2331;48.806;9.140;2023-04-01T16:05:25;12.80;1.00
4637;DHT22;2331;48.806;9.140;2023-04-01T16:08:02;12.80;1.00
4637;DHT22;2331;48.806;9.140;2023-04-01T16:10:44;12.80;1.00
4637;DHT22;2331;48.806;9.140;2023-04-01T16:13:24;12.80;1.00
4637;DHT22;2331;48.806;9.140;2023-04-01T16:16:00;12.70;1.00
4637;DHT22;2331;48.806;9.140;2023-04-01T16:18:48;12.70;1.00
4637;DHT22;2331;48.806;9.140;2023-04-01T16:21:33;12.70;1.00
4637;DHT22;2331;48.806;9.140;2023-04-01T16:24:10;12.70;1.00
4637;DHT22;2331;48.806;9.140;2023-04-01T16:26:44;12.80;1.00
4637;DHT22;2331;48.806;9.140;2023-04-01T16:29:22;12.80;1.00
4637;DHT22;2331;48.806;9.140;2023-04-01T16:31:57;12.80;1.00
4637;DHT22;2331;48.806;9.140;2023-04-01T16:34:30;12.70;1.00
4637;DHT22;2331;48.806;9.140;2023-04-01T16:37:05;12.70;1.00
4637;DHT22;2331;48.806;9.140;2023-04-01T16:39:37;12.60;1.00
4637;DHT22;2331;48.806;9.140;2023-04-01T16:42:24;12.80;1.00
4637;DHT22;2331;48.806;9.140;2023-04-01T16:44:56;12.80;1.00
4637;DHT22;2331;48.806;9.140;2023-04-01T16:47:29;12.80;1.00
4637;DHT22;2331;48.806;9.140;2023-04-01T16:49:59;12.80;1.00
4637;DHT22;2331;48.806;9.140;2023-04-01T16:52:48;12.80;1.00
4637;DHT22;2331;48.806;9.140;2023-04-01T16:55:20;12.80;1.00
4637;DHT22;2331;48.806;9.140;2023-04-01T16:57:51;12.80;1.00
4637;DHT22;2331;48.806;9.140;2023-04-01T17:00:25;12.90;1.00
4637;DHT22;2331;48.806;9.140;2023-04-01T17:03:03;12.90;1.00
4637;DHT22;2331;48.806;9.140;2023-04-01T17:05:42;12.90;1.00
4637;DHT22;2331;48.806;9.140;2023-04-01T17:08:22;12.70;1.00
4637;DHT22;2331;48.806;9.140;2023-04-01T17:10:53;12.80;1.00
4637;DHT22;2331;48.806;9.140;2023-04-01T17:13:35;12.90;1.00
4637;DHT22;2331;48.806;9.140;2023-04-01T17:16:24;12.80;1.00
4637;DHT22;2331;48.806;9.140;2023-04-01T17:19:01;12.80;1.00
4637;DHT22;2331;48.806;9.140;2023-04-01T17:21:44;12.80;1.00
4637;DHT22;2331;48.806;9.140;2023-04-01T17:24:29;12.90;1.00
4637;DHT22;2331;48.806;9.140;2023-04-01T17:27:03;12.80;1.00
4637;DHT22;2331;48.806;9.140;2023-04-01T17:29:40;12.90;1.00
4637;DHT22;2331;48.806;9.140;2023-04-01T17:32:11;12.80;1.00
4637;DHT22;2331;48.806;9.140;2023-04-01T17:34:52;12.90;1.00
4637;DHT22;2331;48.806;9.140;2023-04-01T17:37:34;12.80;1.00
4637;DHT22;2331;48.806;9.140;2023-04-01T17:40:30;12.80;1.00
4637;DHT22;2331;48.806;9.140;2023-04-01T17:43:08;12.80;1.00
4637;DHT22;2331;48.806;9.140;2023-04-01T17:45:42;12.80;1.00
4637;DHT22;2331;48.806;9.140;2023-04-01T17:48:21;12.80;1.00
4637;DHT22;2331;48.806;9.140;2023-04-01T17:50:59;12.80;1.00
4637;DHT22;2331;48.806;9.140;2023-04-01T17:53:38;12.80;1.00
4637;DHT22;2331;48.806;9.140;2023-04-01T17:56:14;12.90;1.00
4637;DHT22;2331;48.806;9.140;2023-04-01T17:58:46;12.80;1.00
4637;DHT22;2331;48.806;9.140;2023-04-01T18:01:24;12.80;1.00
4637;DHT22;2331;48.806;9.140;2023-04-01T18:04:14;12.80;1.00
4637;DHT22;2331;48.806;9.140;2023-04-01T18:06:52;12.80;1.00
4637;DHT22;2331;48.806;9.140;2023-04-01T18:09:28;12.70;1.00
4637;DHT22;2331;48.806;9.140;2023-04-01T18:12:06;12.70;1.00
4637;DHT22;2331;48.806;9.140;2023-04-01T18:14:53;12.60;1.00